createdAt,value
2022-10-24T00:01:23.169Z,62.99
2022-10-24T00:03:51.097Z,62.34
2022-10-24T00:06:18.670Z,61.85
2022-10-24T00:08:46.366Z,61.43
2022-10-24T00:11:20.876Z,62.61
2022-10-24T00:13:48.903Z,63.01
2022-10-24T00:16:17.630Z,62.51
2022-10-24T00:18:45.003Z,62.89
2022-10-24T00:21:13.108Z,63.04
2022-10-24T00:23:40.302Z,63.33
2022-10-24T00:26:07.954Z,63.93
2022-10-24T00:28:36.778Z,63.57
2022-10-24T00:31:05.804Z,63.61
2022-10-24T00:33:32.847Z,63.96
2022-10-24T00:36:00.338Z,64.18
2022-10-24T00:38:27.308Z,64.14
2022-10-24T00:40:54.206Z,63.83
2022-10-24T00:43:24.284Z,64.24
2022-10-24T00:45:57.129Z,64.31
2022-10-24T00:48:28.470Z,63.75
2022-10-24T00:51:03.740Z,62.89
2022-10-24T00:53:34.576Z,63.07
2022-10-24T00:56:02.987Z,62.67
2022-10-24T00:58:32.588Z,62.27
2022-10-24T01:01:00.384Z,62.44
2022-10-24T01:03:28.150Z,62.90
2022-10-24T01:06:10.286Z,63.51
2022-10-24T01:08:47.030Z,63.19
2022-10-24T01:11:38.836Z,62.70
2022-10-24T01:14:22.844Z,62.76
2022-10-24T01:16:57.221Z,62.64
2022-10-24T01:19:35.343Z,63.38
2022-10-24T01:22:08.449Z,62.73
2022-10-24T01:24:41.545Z,62.24
2022-10-24T01:27:40.802Z,61.80
2022-10-24T01:30:09.623Z,62.09
2022-10-24T01:32:42.740Z,61.47
2022-10-24T01:35:14.560Z,61.76
2022-10-24T01:38:00.491Z,61.87
2022-10-24T01:40:33.384Z,61.85
2022-10-24T01:43:08.300Z,62.21
2022-10-24T01:45:39.333Z,62.66
2022-10-24T01:48:11.148Z,62.95
2022-10-24T01:50:39.491Z,63.16
2022-10-24T01:53:09.233Z,63.21
2022-10-24T01:55:38.077Z,62.37
2022-10-24T01:58:07.167Z,62.38
2022-10-24T02:00:34.637Z,62.65
2022-10-24T02:03:10.379Z,63.21
2022-10-24T02:05:43.015Z,62.71
2022-10-24T02:08:14.648Z,62.84
2022-10-24T02:10:51.646Z,63.03
2022-10-24T02:13:36.981Z,64.05
2022-10-24T02:16:04.946Z,64.34
2022-10-24T02:18:33.562Z,64.26
2022-10-24T02:21:21.758Z,64.41
2022-10-24T02:24:17.427Z,65.23
2022-10-24T02:27:04.452Z,65.55
2022-10-24T02:29:43.410Z,65.47
2022-10-24T02:32:26.419Z,64.98
2022-10-24T02:34:54.233Z,65.24
2022-10-24T02:37:24.465Z,66.11
2022-10-24T02:39:53.029Z,66.91
2022-10-24T02:42:21.652Z,67.23
2022-10-24T02:44:49.334Z,67.89
2022-10-24T02:47:19.813Z,67.90
2022-10-24T02:49:46.945Z,67.82
2022-10-24T02:52:14.908Z,68.85
2022-10-24T02:54:41.861Z,69.30
2022-10-24T02:57:09.776Z,69.20
2022-10-24T02:59:38.078Z,69.89
2022-10-24T03:02:05.032Z,69.67
2022-10-24T03:04:33.011Z,69.83
2022-10-24T03:06:59.925Z,69.34
2022-10-24T03:09:27.815Z,68.96
2022-10-24T03:11:54.874Z,69.63
2022-10-24T03:14:21.686Z,69.38
2022-10-24T03:16:49.142Z,69.58
2022-10-24T03:19:16.092Z,69.51
2022-10-24T03:21:47.832Z,69.12
2022-10-24T03:24:19.594Z,69.99
2022-10-24T03:26:53.908Z,69.70
2022-10-24T03:29:21.768Z,69.24
2022-10-24T03:31:50.038Z,68.78
2022-10-24T03:34:16.929Z,68.59
2022-10-24T03:36:43.802Z,68.76
2022-10-24T03:39:10.729Z,69.82
2022-10-24T03:41:37.812Z,70.12
2022-10-24T03:44:04.858Z,70.77
2022-10-24T03:46:32.322Z,70.98
2022-10-24T03:48:59.326Z,71.00
2022-10-24T03:51:26.251Z,70.78
2022-10-24T03:53:53.167Z,70.65
2022-10-24T03:56:20.280Z,70.85
2022-10-24T03:58:47.308Z,70.63
2022-10-24T04:01:18.353Z,70.24
2022-10-24T04:03:45.855Z,70.39
2022-10-24T04:06:15.083Z,69.84
2022-10-24T04:08:42.218Z,69.69
2022-10-24T04:11:10.272Z,69.59
2022-10-24T04:13:37.205Z,70.13
2022-10-24T04:16:04.313Z,70.16
2022-10-24T04:18:31.231Z,70.53
2022-10-24T04:20:58.108Z,70.83
2022-10-24T04:23:25.652Z,70.51
2022-10-24T04:25:52.785Z,70.52
2022-10-24T04:28:19.710Z,70.95
2022-10-24T04:30:46.885Z,70.99
2022-10-24T04:33:13.760Z,71.08
2022-10-24T04:35:40.626Z,70.16
2022-10-24T04:38:08.007Z,69.86
2022-10-24T04:40:34.835Z,69.54
2022-10-24T04:43:01.888Z,69.28
2022-10-24T04:45:28.773Z,68.98
2022-10-24T04:47:57.282Z,69.28
2022-10-24T04:50:24.431Z,68.87
2022-10-24T04:52:51.332Z,68.95
2022-10-24T04:55:18.816Z,68.81
2022-10-24T04:57:46.166Z,69.12
2022-10-24T05:00:13.961Z,67.99
2022-10-24T05:02:40.896Z,67.55
2022-10-24T05:05:08.352Z,67.53
2022-10-24T05:07:36.917Z,68.10
2022-10-24T05:10:05.232Z,67.98
2022-10-24T05:12:32.129Z,69.05
2022-10-24T05:14:59.895Z,69.49
2022-10-24T05:17:27.468Z,69.34
2022-10-24T05:19:55.477Z,69.84
2022-10-24T05:22:30.335Z,69.71
2022-10-24T05:24:57.343Z,69.23
2022-10-24T05:27:25.695Z,68.84
2022-10-24T05:29:53.492Z,68.21
2022-10-24T05:32:24.051Z,67.82
2022-10-24T05:34:52.755Z,67.84
2022-10-24T05:37:19.660Z,67.93
2022-10-24T05:39:47.308Z,68.06
2022-10-24T05:42:14.542Z,67.89
2022-10-24T05:44:42.243Z,66.72
2022-10-24T05:47:09.290Z,66.60
2022-10-24T05:49:39.919Z,67.80
2022-10-24T05:52:07.303Z,67.71
2022-10-24T05:54:48.352Z,67.34
2022-10-24T05:57:25.105Z,66.97
2022-10-24T05:59:52.098Z,66.71
2022-10-24T06:02:21.736Z,67.41
2022-10-24T06:04:50.699Z,67.34
2022-10-24T06:07:18.988Z,67.29
2022-10-24T06:09:46.622Z,66.43
2022-10-24T06:12:13.872Z,66.73
2022-10-24T06:14:42.397Z,66.08
2022-10-24T06:17:09.967Z,65.94
2022-10-24T06:19:39.243Z,65.46
2022-10-24T06:22:09.016Z,65.32
2022-10-24T06:24:37.018Z,63.79
2022-10-24T06:27:07.791Z,63.27
2022-10-24T06:29:35.730Z,63.00
2022-10-24T06:32:03.084Z,62.81
2022-10-24T06:34:30.338Z,62.91
2022-10-24T06:36:57.263Z,63.09
2022-10-24T06:39:24.921Z,63.15
2022-10-24T06:41:52.512Z,62.19
2022-10-24T06:44:26.558Z,61.10
2022-10-24T06:46:55.959Z,61.44
2022-10-24T06:49:23.620Z,61.38
2022-10-24T06:51:52.582Z,60.54
2022-10-24T06:54:19.671Z,59.96
2022-10-24T06:56:46.692Z,59.38
2022-10-24T06:59:17.336Z,59.07
2022-10-24T07:01:45.225Z,59.77
2022-10-24T07:04:13.547Z,59.22
2022-10-24T07:06:41.753Z,58.91
2022-10-24T07:09:18.817Z,58.22
2022-10-24T07:11:46.237Z,57.64
2022-10-24T07:14:18.193Z,56.78
2022-10-24T07:16:45.538Z,56.60
2022-10-24T07:19:12.857Z,55.05
2022-10-24T07:21:40.263Z,54.04
2022-10-24T07:24:07.807Z,53.92
2022-10-24T07:26:34.779Z,53.03
2022-10-24T07:31:32.499Z,51.56
2022-10-24T07:34:06.124Z,51.39
2022-10-24T07:36:40.063Z,50.84
2022-10-24T07:39:10.936Z,51.01
2022-10-24T07:41:40.852Z,50.51
2022-10-24T07:44:09.053Z,50.34
2022-10-24T07:46:35.984Z,50.13
2022-10-24T07:49:05.583Z,49.88
2022-10-24T07:51:35.486Z,49.96
2022-10-24T07:54:02.701Z,49.60
2022-10-24T07:56:31.459Z,49.14
2022-10-24T07:58:58.741Z,49.10
2022-10-24T08:01:26.626Z,48.88
2022-10-24T08:03:54.303Z,48.60
2022-10-24T08:06:24.453Z,48.52
2022-10-24T08:08:51.838Z,47.77
2022-10-24T08:11:22.236Z,47.83
2022-10-24T08:13:54.539Z,47.13
2022-10-24T08:16:24.078Z,46.76
2022-10-24T08:18:55.754Z,46.42
2022-10-24T08:21:23.353Z,46.32
2022-10-24T08:23:53.333Z,45.92
2022-10-24T08:26:23.338Z,45.58
2022-10-24T08:28:50.788Z,45.38
2022-10-24T08:31:21.547Z,45.22
2022-10-24T08:33:52.163Z,45.03
2022-10-24T08:36:23.831Z,44.26
2022-10-24T08:38:51.005Z,45.21
2022-10-24T08:41:38.093Z,45.13
2022-10-24T08:44:15.912Z,45.46
2022-10-24T08:46:56.196Z,45.46
2022-10-24T08:49:33.733Z,45.20
2022-10-24T08:52:22.579Z,44.45
2022-10-24T08:54:53.741Z,44.52
2022-10-24T08:57:30.106Z,44.54
2022-10-24T09:00:08.046Z,44.31
2022-10-24T09:02:44.455Z,43.94
2022-10-24T09:05:15.264Z,44.15
2022-10-24T09:07:48.867Z,43.61
2022-10-24T09:10:28.643Z,43.02
2022-10-24T09:12:55.888Z,43.06
2022-10-24T09:15:28.544Z,42.81
2022-10-24T09:17:59.364Z,42.98
2022-10-24T09:20:33.434Z,42.16
2022-10-24T09:23:04.659Z,42.17
2022-10-24T09:25:38.894Z,41.93
2022-10-24T09:28:07.303Z,42.05
2022-10-24T09:30:36.812Z,41.84
2022-10-24T09:33:28.915Z,41.52
2022-10-24T09:36:00.256Z,41.60
2022-10-24T09:38:36.187Z,41.28
2022-10-24T09:41:20.453Z,41.18
2022-10-24T09:43:55.107Z,41.24
2022-10-24T09:46:36.645Z,40.76
2022-10-24T09:49:17.628Z,40.54
2022-10-24T09:51:50.257Z,40.33
2022-10-24T09:54:21.382Z,39.66
2022-10-24T09:57:12.662Z,40.74
2022-10-24T09:59:48.673Z,40.76
2022-10-24T10:02:36.600Z,41.35
2022-10-24T10:05:03.558Z,40.76
2022-10-24T10:07:38.304Z,40.79
2022-10-24T10:10:23.541Z,40.61
2022-10-24T10:13:04.590Z,40.48
2022-10-24T10:15:47.519Z,40.72
2022-10-24T10:18:22.860Z,40.93
2022-10-24T10:21:00.152Z,40.30
2022-10-24T10:23:55.107Z,40.23
2022-10-24T10:26:34.859Z,40.16
2022-10-24T10:29:27.245Z,39.86
2022-10-24T10:32:11.666Z,39.86
2022-10-24T10:34:47.672Z,39.81
2022-10-24T10:37:28.717Z,39.44
2022-10-24T10:40:29.463Z,39.30
2022-10-24T10:43:46.368Z,39.28
2022-10-24T10:46:43.567Z,39.13
2022-10-24T10:49:28.129Z,39.09
2022-10-24T10:52:11.363Z,39.07
2022-10-24T10:54:53.722Z,38.65
2022-10-24T10:57:42.226Z,38.36
2022-10-24T11:00:14.934Z,38.62
2022-10-24T11:02:52.895Z,38.52
2022-10-24T11:05:50.002Z,38.53
2022-10-24T11:08:47.785Z,38.74
2022-10-24T11:11:33.510Z,39.04
2022-10-24T11:14:29.565Z,38.99
2022-10-24T11:17:05.107Z,39.54
2022-10-24T11:19:55.841Z,39.09
2022-10-24T11:22:29.237Z,38.95
2022-10-24T11:28:14.135Z,38.66
2022-10-24T11:30:53.419Z,38.48
2022-10-24T11:33:29.364Z,38.45
2022-10-24T11:36:14.153Z,38.53
2022-10-24T11:38:52.098Z,38.60
2022-10-24T11:41:31.201Z,39.14
2022-10-24T11:44:07.222Z,40.00
2022-10-24T11:46:51.588Z,39.77
2022-10-24T11:49:33.035Z,39.88
2022-10-24T11:52:13.622Z,39.09
2022-10-24T11:55:04.338Z,39.23
2022-10-24T11:57:40.612Z,39.33
2022-10-24T12:00:08.296Z,38.97
2022-10-24T12:02:56.663Z,39.26
2022-10-24T12:08:22.175Z,39.28
2022-10-24T12:11:17.022Z,39.42
2022-10-24T12:14:09.678Z,39.26
2022-10-24T12:16:49.541Z,38.68
2022-10-24T12:19:19.742Z,39.18
2022-10-24T12:22:01.731Z,39.38
2022-10-24T12:24:32.989Z,38.74
2022-10-24T12:27:06.902Z,39.41
2022-10-24T12:29:36.669Z,39.03
2022-10-24T12:32:24.292Z,39.36
2022-10-24T12:35:29.878Z,39.34
2022-10-24T12:37:59.677Z,39.49
2022-10-24T12:40:46.191Z,39.35
2022-10-24T12:43:29.179Z,39.45
2022-10-24T12:46:00.260Z,39.55
2022-10-24T12:48:39.771Z,39.73
2022-10-24T12:51:26.585Z,39.66
2022-10-24T12:54:11.993Z,39.81
2022-10-24T12:56:53.856Z,39.79
2022-10-24T12:59:31.989Z,39.97
2022-10-24T13:02:11.097Z,39.46
2022-10-24T13:04:52.307Z,40.14
2022-10-24T13:07:37.395Z,40.21
2022-10-24T13:10:11.631Z,40.08
2022-10-24T13:13:00.258Z,39.94
2022-10-24T13:15:45.707Z,40.45
2022-10-24T13:18:41.643Z,40.13
2022-10-24T13:21:18.300Z,39.68
2022-10-24T13:23:48.913Z,40.09
2022-10-24T13:26:40.246Z,39.79
2022-10-24T13:29:26.258Z,40.09
2022-10-24T13:32:07.357Z,40.03
2022-10-24T13:34:44.204Z,40.09
2022-10-24T13:37:11.079Z,40.63
2022-10-24T13:39:44.816Z,40.90
2022-10-24T13:42:36.349Z,40.97
2022-10-24T13:45:30.538Z,42.07
2022-10-24T13:48:13.090Z,41.79
2022-10-24T13:51:04.090Z,42.11
2022-10-24T13:53:52.861Z,42.51
2022-10-24T13:56:20.131Z,42.45
2022-10-24T13:58:47.271Z,42.20
2022-10-24T14:01:23.992Z,42.06
2022-10-24T14:03:55.656Z,41.93
2022-10-24T14:06:27.557Z,41.65
2022-10-24T14:09:05.846Z,41.78
2022-10-24T14:11:35.385Z,42.08
2022-10-24T14:14:10.976Z,42.01
2022-10-24T14:16:40.965Z,41.96
2022-10-24T14:19:31.096Z,42.17
2022-10-24T14:22:01.020Z,41.94
2022-10-24T14:24:31.162Z,42.50
2022-10-24T14:26:59.844Z,42.63
2022-10-24T14:29:34.084Z,43.13
2022-10-24T14:32:11.492Z,43.25
2022-10-24T14:34:40.208Z,43.64
2022-10-24T14:37:27.498Z,43.52
2022-10-24T14:39:56.041Z,43.79
2022-10-24T14:42:24.001Z,43.56
2022-10-24T14:44:56.167Z,43.81
2022-10-24T14:47:32.704Z,43.14
2022-10-24T14:50:00.104Z,43.05
2022-10-24T14:52:37.313Z,42.76
2022-10-24T14:55:15.550Z,42.23
2022-10-24T14:57:48.498Z,42.31
2022-10-24T15:00:29.159Z,42.38
2022-10-24T15:02:58.390Z,42.30
2022-10-24T15:05:31.985Z,42.38
2022-10-24T15:08:23.867Z,41.95
2022-10-24T15:11:16.363Z,42.48
2022-10-24T15:14:05.238Z,42.65
2022-10-24T15:16:37.926Z,42.80
2022-10-24T15:19:07.190Z,42.76
2022-10-24T15:21:43.354Z,42.80
2022-10-24T15:24:24.004Z,42.92
2022-10-24T15:26:51.953Z,43.14
2022-10-24T15:29:22.258Z,42.75
2022-10-24T15:31:52.413Z,43.15
2022-10-24T15:34:23.095Z,43.38
2022-10-24T15:36:55.189Z,43.50
2022-10-24T15:39:25.165Z,43.74
2022-10-24T15:41:53.123Z,43.63
2022-10-24T15:44:23.663Z,43.84
2022-10-24T15:46:50.635Z,44.28
2022-10-24T15:49:17.903Z,44.19
2022-10-24T15:51:49.848Z,44.20
2022-10-24T15:54:20.670Z,44.51
2022-10-24T15:56:48.528Z,44.19
2022-10-24T15:59:17.653Z,44.62
2022-10-24T16:02:23.099Z,44.94
2022-10-24T16:04:52.192Z,44.88
2022-10-24T16:10:39.646Z,45.18
2022-10-24T16:13:06.911Z,45.16
2022-10-24T16:15:36.898Z,45.17
2022-10-24T16:18:04.748Z,45.27
2022-10-24T16:20:35.045Z,45.04
2022-10-24T16:23:03.119Z,45.41
2022-10-24T16:25:36.032Z,45.31
2022-10-24T16:28:05.109Z,45.74
2022-10-24T16:30:33.841Z,45.65
2022-10-24T16:33:00.843Z,45.84
2022-10-24T16:35:30.784Z,46.01
2022-10-24T16:37:58.889Z,46.26
2022-10-24T16:40:27.306Z,46.34
2022-10-24T16:42:56.197Z,46.66
2022-10-24T16:45:23.463Z,46.93
2022-10-24T16:47:51.034Z,46.51
2022-10-24T16:50:24.158Z,46.80
2022-10-24T16:52:56.226Z,47.41
2022-10-24T16:55:24.941Z,47.49
2022-10-24T16:57:51.848Z,46.92
2022-10-24T17:00:20.747Z,47.06
2022-10-24T17:02:50.979Z,46.84
2022-10-24T17:05:20.021Z,47.26
2022-10-24T17:07:47.644Z,48.37
2022-10-24T17:10:20.631Z,48.33
2022-10-24T17:12:51.766Z,48.61
2022-10-24T17:15:21.970Z,49.41
2022-10-24T17:17:50.050Z,50.35
2022-10-24T17:20:17.731Z,51.37
2022-10-24T17:22:46.522Z,51.50
2022-10-24T17:25:19.443Z,52.49
2022-10-24T17:27:47.222Z,52.72
2022-10-24T17:30:20.621Z,52.63
2022-10-24T17:32:47.967Z,53.20
2022-10-24T17:35:17.846Z,53.58
2022-10-24T17:38:11.709Z,53.65
2022-10-24T17:40:45.049Z,53.61
2022-10-24T17:43:32.223Z,53.44
2022-10-24T17:45:59.369Z,53.90
2022-10-24T17:48:26.831Z,54.72
2022-10-24T17:50:56.090Z,54.94
2022-10-24T17:53:25.108Z,55.17
2022-10-24T17:55:51.954Z,55.63
2022-10-24T17:58:18.887Z,55.62
2022-10-24T18:00:46.284Z,56.02
2022-10-24T18:03:13.804Z,56.40
2022-10-24T18:05:41.121Z,56.20
2022-10-24T18:08:09.829Z,56.33
2022-10-24T18:10:42.160Z,56.89
2022-10-24T18:13:09.383Z,56.53
2022-10-24T18:15:37.010Z,56.59
2022-10-24T18:18:04.897Z,56.42
2022-10-24T18:20:32.351Z,56.62
2022-10-24T18:23:00.247Z,56.88
2022-10-24T18:25:27.794Z,56.99
2022-10-24T18:27:56.424Z,56.46
2022-10-24T18:30:23.433Z,57.05
2022-10-24T18:32:50.561Z,57.53
2022-10-24T18:35:17.676Z,57.53
2022-10-24T18:37:46.080Z,57.50
2022-10-24T18:40:13.696Z,57.58
2022-10-24T18:43:04.262Z,57.82
2022-10-24T18:45:32.228Z,58.22
2022-10-24T18:47:59.560Z,58.71
2022-10-24T18:50:27.065Z,58.39
2022-10-24T18:53:03.419Z,58.52
2022-10-24T18:55:32.833Z,58.08
2022-10-24T18:57:59.863Z,58.97
2022-10-24T19:00:30.046Z,59.51
2022-10-24T19:03:29.781Z,59.14
2022-10-24T19:06:15.476Z,59.24
2022-10-24T19:08:42.407Z,59.65
2022-10-24T19:13:42.522Z,59.02
2022-10-24T19:16:18.998Z,58.50
2022-10-24T19:18:54.357Z,58.13
2022-10-24T19:21:21.884Z,58.10
2022-10-24T19:23:51.164Z,58.24
2022-10-24T19:26:18.317Z,58.85
2022-10-24T19:28:45.440Z,58.61
2022-10-24T19:31:14.880Z,59.23
2022-10-24T19:33:42.961Z,59.89
2022-10-24T19:36:14.347Z,59.64
2022-10-24T19:38:43.799Z,60.62
2022-10-24T19:41:11.710Z,60.49
2022-10-24T19:43:38.883Z,60.80
2022-10-24T19:46:24.678Z,60.51
2022-10-24T19:48:53.130Z,60.32
2022-10-24T19:51:20.633Z,60.93
2022-10-24T19:53:49.727Z,61.06
2022-10-24T19:56:23.968Z,61.12
2022-10-24T19:58:53.507Z,62.19
2022-10-24T20:01:24.702Z,62.12
2022-10-24T20:03:52.125Z,62.36
2022-10-24T20:06:19.610Z,62.41
2022-10-24T20:08:48.037Z,62.94
2022-10-24T20:11:15.781Z,63.39
2022-10-24T20:13:43.651Z,63.28
2022-10-24T20:16:11.515Z,64.22
2022-10-24T20:21:15.101Z,62.80
2022-10-24T20:23:42.380Z,62.61
2022-10-24T20:26:19.191Z,62.49
2022-10-24T20:28:49.311Z,62.25
2022-10-24T20:31:24.406Z,61.67
2022-10-24T20:33:52.224Z,62.09
2022-10-24T20:36:22.945Z,62.06
2022-10-24T20:38:49.892Z,62.33
2022-10-24T20:41:17.345Z,62.37
2022-10-24T20:43:44.287Z,63.09
2022-10-24T20:46:11.624Z,64.42
2022-10-24T20:48:38.725Z,64.78
2022-10-24T20:51:14.001Z,66.14
2022-10-24T20:53:42.495Z,66.51
2022-10-24T20:56:13.938Z,66.69
2022-10-24T20:58:42.876Z,66.63
2022-10-24T21:01:18.857Z,66.66
2022-10-24T21:03:45.906Z,66.66
2022-10-24T21:06:15.769Z,66.91
2022-10-24T21:08:42.661Z,66.53
2022-10-24T21:11:12.686Z,66.59
2022-10-24T21:13:39.592Z,66.37
2022-10-24T21:16:08.171Z,66.72
2022-10-24T21:18:35.344Z,67.20
2022-10-24T21:21:13.051Z,68.37
2022-10-24T21:23:40.247Z,68.40
2022-10-24T21:26:10.279Z,69.16
2022-10-24T21:28:38.348Z,68.66
2022-10-24T21:31:07.494Z,67.73
2022-10-24T21:33:34.408Z,68.29
2022-10-24T21:36:06.754Z,67.51
2022-10-24T21:38:33.914Z,67.74
2022-10-24T21:41:06.772Z,67.93
2022-10-24T21:43:41.034Z,68.72
2022-10-24T21:46:13.586Z,69.61
2022-10-24T21:48:42.628Z,69.88
2022-10-24T21:51:32.712Z,69.41
2022-10-24T21:54:02.326Z,69.47
2022-10-24T21:56:32.218Z,70.28
2022-10-24T22:01:36.125Z,70.92
2022-10-24T22:04:04.751Z,70.75
2022-10-24T22:06:35.333Z,71.23
2022-10-24T22:09:04.291Z,72.01
2022-10-24T22:11:36.492Z,71.24
2022-10-24T22:14:05.266Z,71.08
2022-10-24T22:16:32.825Z,70.46
2022-10-24T22:19:02.361Z,70.03
2022-10-24T22:21:33.969Z,69.41
2022-10-24T22:24:04.275Z,69.25
2022-10-24T22:26:32.999Z,68.44
2022-10-24T22:29:00.505Z,68.91
2022-10-24T22:31:29.664Z,68.97
2022-10-24T22:33:57.540Z,68.63
2022-10-24T22:36:44.318Z,69.47
2022-10-24T22:39:17.912Z,70.36
2022-10-24T22:41:45.958Z,70.47
2022-10-24T22:44:15.293Z,70.62
2022-10-24T22:47:03.990Z,71.51
2022-10-24T22:49:50.274Z,71.13
2022-10-24T22:52:17.337Z,71.07
2022-10-24T22:54:44.766Z,71.04
2022-10-24T22:57:11.926Z,71.17
2022-10-24T22:59:42.395Z,70.75
2022-10-24T23:02:19.578Z,70.83
2022-10-24T23:05:05.829Z,70.03
2022-10-24T23:07:45.726Z,69.90
2022-10-24T23:10:18.807Z,69.59
2022-10-24T23:12:45.926Z,69.94
2022-10-24T23:15:18.474Z,69.43
2022-10-24T23:17:46.628Z,69.22
2022-10-24T23:20:32.819Z,69.53
2022-10-24T23:23:16.560Z,69.93
2022-10-24T23:25:52.707Z,70.86
2022-10-24T23:28:29.566Z,71.42
2022-10-24T23:30:58.741Z,70.70
2022-10-24T23:33:30.405Z,70.25
2022-10-24T23:35:59.673Z,70.05
2022-10-24T23:38:27.297Z,71.14
2022-10-24T23:40:54.566Z,72.19
2022-10-24T23:43:21.994Z,72.21
2022-10-24T23:46:01.843Z,73.07
2022-10-24T23:48:45.322Z,73.50
2022-10-24T23:51:17.678Z,73.70
2022-10-24T23:53:53.544Z,73.76
2022-10-24T23:56:23.940Z,73.45
2022-10-24T23:58:51.611Z,74.81
